createdAt,value
2022-11-16T00:01:34.677Z,94773.47
2022-11-16T00:04:03.484Z,94754.16
2022-11-16T00:06:30.479Z,94767.97
2022-11-16T00:09:24.799Z,94730.69
2022-11-16T00:12:02.352Z,94762.63
2022-11-16T00:14:32.813Z,94766.06
2022-11-16T00:17:01.839Z,94744.44
2022-11-16T00:19:29.256Z,94750.22
2022-11-16T00:21:56.278Z,94745.44
2022-11-16T00:24:23.849Z,94759.38
2022-11-16T00:27:09.462Z,94752.25
2022-11-16T00:29:36.948Z,94732.34
2022-11-16T00:32:04.513Z,94742.28
2022-11-16T00:34:31.684Z,94747.69
2022-11-16T00:36:58.711Z,94754.19
2022-11-16T00:39:25.596Z,94696.94
2022-11-16T00:41:52.467Z,94735.81
2022-11-16T00:44:19.449Z,94743.59
2022-11-16T00:46:46.633Z,94724.38
2022-11-16T00:49:13.592Z,94735.56
2022-11-16T00:51:40.633Z,94742.59
2022-11-16T00:54:09.463Z,94733.25
2022-11-16T00:56:38.056Z,94725.94
2022-11-16T00:59:08.165Z,94722.25
2022-11-16T01:01:35.163Z,94710.13
2022-11-16T01:04:02.420Z,94717.81
2022-11-16T01:06:29.384Z,94711.78
2022-11-16T01:08:56.307Z,94711.16
2022-11-16T01:11:42.524Z,94709.97
2022-11-16T01:14:10.419Z,94712.63
2022-11-16T01:16:37.651Z,94710.44
2022-11-16T01:19:05.288Z,94716.81
2022-11-16T01:21:33.209Z,94698.31
2022-11-16T01:24:00.278Z,94687.38
2022-11-16T01:26:27.446Z,94699.41
2022-11-16T01:28:54.304Z,94713.25
2022-11-16T01:31:21.669Z,94700.84
2022-11-16T01:33:51.379Z,94683.81
2022-11-16T01:36:24.785Z,94699.78
2022-11-16T01:38:53.353Z,94695.38
2022-11-16T01:41:25.910Z,94689.16
2022-11-16T01:44:25.147Z,94697.53
2022-11-16T01:46:55.442Z,94693.47
2022-11-16T01:49:25.549Z,94705.91
2022-11-16T01:52:04.797Z,94675.66
2022-11-16T01:54:38.797Z,94698.94
2022-11-16T01:57:11.287Z,94686.72
2022-11-16T01:59:53.578Z,94686.16
2022-11-16T02:02:22.813Z,94690.41
2022-11-16T02:04:52.095Z,94689.47
2022-11-16T02:08:24.533Z,94684.19
2022-11-16T02:11:16.497Z,94665.94
2022-11-16T02:13:55.833Z,94661.44
2022-11-16T02:16:28.860Z,94662.88
2022-11-16T02:19:12.024Z,94670.84
2022-11-16T02:21:57.761Z,94674.34
2022-11-16T02:24:26.417Z,94676.41
2022-11-16T02:26:56.332Z,94678.63
2022-11-16T02:29:40.107Z,94671.75
2022-11-16T02:32:15.626Z,94673.59
2022-11-16T02:34:57.636Z,94671.13
2022-11-16T02:37:28.337Z,94666.09
2022-11-16T02:40:01.248Z,94655.38
2022-11-16T02:42:51.312Z,94663.09
2022-11-16T02:45:26.246Z,94671.78
2022-11-16T02:47:56.988Z,94656.59
2022-11-16T02:50:26.359Z,94636.97
2022-11-16T02:52:55.469Z,94649.50
2022-11-16T02:55:24.722Z,94659.22
2022-11-16T02:58:03.955Z,94666.53
2022-11-16T03:01:04.691Z,94662.84
2022-11-16T03:03:35.736Z,94644.63
2022-11-16T03:06:11.672Z,94651.09
2022-11-16T03:08:45.010Z,94632.06
2022-11-16T03:11:31.781Z,94641.38
2022-11-16T03:14:05.787Z,94644.22
2022-11-16T03:16:43.617Z,94639.75
2022-11-16T03:19:14.555Z,94632.66
2022-11-16T03:21:47.880Z,94651.53
2022-11-16T03:24:15.668Z,94643.44
2022-11-16T03:27:06.613Z,94641.78
2022-11-16T03:30:14.953Z,94637.53
2022-11-16T03:32:51.360Z,94615.22
2022-11-16T03:35:26.804Z,94631.44
2022-11-16T03:37:57.682Z,94640.72
2022-11-16T03:40:30.270Z,94641.97
2022-11-16T03:43:00.850Z,94637.50
2022-11-16T03:45:29.134Z,94615.41
2022-11-16T03:47:56.173Z,94618.44
2022-11-16T03:50:23.527Z,94636.03
2022-11-16T03:52:51.173Z,94631.38
2022-11-16T03:55:19.263Z,94635.19
2022-11-16T03:57:46.559Z,94628.69
2022-11-16T04:00:14.736Z,94613.28
2022-11-16T04:02:43.061Z,94613.22
2022-11-16T04:05:34.369Z,94623.72
2022-11-16T04:08:20.421Z,94611.13
2022-11-16T04:11:06.009Z,94603.03
2022-11-16T04:13:53.082Z,94600.34
2022-11-16T04:16:39.247Z,94601.72
2022-11-16T04:19:28.026Z,94598.69
2022-11-16T04:22:38.582Z,94596.84
2022-11-16T04:25:16.097Z,94601.47
2022-11-16T04:28:03.314Z,94588.06
2022-11-16T04:30:50.355Z,94585.97
2022-11-16T04:33:37.046Z,94591.44
2022-11-16T04:36:23.002Z,94583.59
2022-11-16T04:38:50.174Z,94582.56
2022-11-16T04:41:37.975Z,94584.81
2022-11-16T04:44:05.216Z,94588.63
2022-11-16T04:46:52.680Z,94578.31
2022-11-16T04:49:22.687Z,94595.09
2022-11-16T04:51:54.045Z,94573.66
2022-11-16T04:54:23.411Z,94566.91
2022-11-16T04:56:50.361Z,94568.66
2022-11-16T04:59:25.741Z,94589.13
2022-11-16T05:02:09.019Z,94532.88
2022-11-16T05:04:52.734Z,94562.97
2022-11-16T05:07:21.398Z,94584.06
2022-11-16T05:09:50.170Z,94583.84
2022-11-16T05:12:20.270Z,94581.34
2022-11-16T05:14:50.943Z,94568.31
2022-11-16T05:17:20.108Z,94569.25
2022-11-16T05:20:06.926Z,94562.50
2022-11-16T05:22:40.466Z,94570.16
2022-11-16T05:25:11.932Z,94568.88
2022-11-16T05:27:39.528Z,94574.44
2022-11-16T05:30:07.734Z,94579.44
2022-11-16T05:32:34.895Z,94579.97
2022-11-16T05:35:02.013Z,94577.47
2022-11-16T05:37:30.524Z,94579.03
2022-11-16T05:39:58.096Z,94565.69
2022-11-16T05:42:35.496Z,94575.38
2022-11-16T05:45:03.485Z,94576.31
2022-11-16T05:47:30.496Z,94561.59
2022-11-16T05:49:58.789Z,94580.25
2022-11-16T05:52:29.302Z,94575.50
2022-11-16T05:55:00.837Z,94582.34
2022-11-16T05:57:30.529Z,94584.59
2022-11-16T05:59:57.356Z,94562.78
2022-11-16T06:02:24.420Z,94553.31
2022-11-16T06:04:51.388Z,94578.97
2022-11-16T06:07:18.573Z,94583.19
2022-11-16T06:09:45.552Z,94588.66
2022-11-16T06:12:18.103Z,94579.31
2022-11-16T06:14:45.075Z,94573.00
2022-11-16T06:17:14.573Z,94587.31
2022-11-16T06:19:42.938Z,94577.91
2022-11-16T06:22:10.411Z,94568.47
2022-11-16T06:24:37.436Z,94584.31
2022-11-16T06:27:04.729Z,94573.78
2022-11-16T06:29:33.965Z,94573.75
2022-11-16T06:32:00.791Z,94584.03
2022-11-16T06:34:27.945Z,94572.72
2022-11-16T06:36:55.882Z,94574.03
2022-11-16T06:39:23.589Z,94577.19
2022-11-16T06:41:51.890Z,94573.03
2022-11-16T06:44:18.732Z,94574.25
2022-11-16T06:46:54.959Z,94541.66
2022-11-16T06:49:25.636Z,94575.16
2022-11-16T06:51:56.124Z,94582.28
2022-11-16T06:54:35.633Z,94574.66
2022-11-16T06:57:03.067Z,94567.22
2022-11-16T06:59:29.926Z,94571.56
2022-11-16T07:01:57.106Z,94570.47
2022-11-16T07:04:24.918Z,94569.56
2022-11-16T07:06:56.054Z,94569.66
2022-11-16T07:09:23.337Z,94560.75
2022-11-16T07:11:50.439Z,94562.28
2022-11-16T07:14:19.163Z,94554.97
2022-11-16T07:16:46.111Z,94556.97
2022-11-16T07:19:13.215Z,94562.75
2022-11-16T07:21:41.188Z,94556.38
2022-11-16T07:24:13.766Z,94554.69
2022-11-16T07:26:40.639Z,94549.41
2022-11-16T07:29:13.866Z,94558.19
2022-11-16T07:31:46.321Z,94559.72
2022-11-16T07:34:45.176Z,94548.47
2022-11-16T07:37:15.983Z,94546.84
2022-11-16T07:39:44.343Z,94551.97
2022-11-16T07:42:12.319Z,94537.00
2022-11-16T07:44:56.735Z,94546.91
2022-11-16T07:47:23.788Z,94545.69
2022-11-16T07:49:50.959Z,94548.81
2022-11-16T07:52:24.650Z,94510.94
2022-11-16T07:54:56.927Z,94539.78
2022-11-16T07:57:26.253Z,94543.03
2022-11-16T07:59:55.231Z,94527.69
2022-11-16T08:02:22.349Z,94533.72
2022-11-16T08:04:51.261Z,94540.84
2022-11-16T08:07:23.032Z,94516.53
2022-11-16T08:09:54.147Z,94533.38
2022-11-16T08:12:22.452Z,94515.19
2022-11-16T08:14:49.324Z,94530.28
2022-11-16T08:17:16.403Z,94521.84
2022-11-16T08:19:44.125Z,94525.88
2022-11-16T08:22:14.333Z,94523.72
2022-11-16T08:24:42.238Z,94509.66
2022-11-16T08:27:09.486Z,94492.03
2022-11-16T08:29:36.701Z,94507.91
2022-11-16T08:32:05.789Z,94504.47
2022-11-16T08:34:34.895Z,94500.31
2022-11-16T08:37:03.355Z,94496.53
2022-11-16T08:39:42.900Z,94502.25
2022-11-16T08:42:10.266Z,94468.63
2022-11-16T08:44:39.132Z,94504.66
2022-11-16T08:47:11.106Z,94484.50
2022-11-16T08:49:49.262Z,94480.06
2022-11-16T08:52:18.347Z,94490.06
2022-11-16T08:54:45.342Z,94492.38
2022-11-16T08:57:12.248Z,94487.63
2022-11-16T08:59:41.473Z,94488.19
2022-11-16T09:02:12.957Z,94487.09
2022-11-16T09:04:40.050Z,94480.38
2022-11-16T09:07:06.883Z,94487.19
2022-11-16T09:09:34.025Z,94491.16
2022-11-16T09:12:00.819Z,94483.91
2022-11-16T09:14:38.252Z,94479.97
2022-11-16T09:17:05.483Z,94466.34
2022-11-16T09:19:32.436Z,94481.84
2022-11-16T09:21:59.407Z,94455.00
2022-11-16T09:24:26.317Z,94463.47
2022-11-16T09:26:53.211Z,94437.41
2022-11-16T09:29:20.005Z,94430.75
2022-11-16T09:31:47.141Z,94423.09
2022-11-16T09:34:14.139Z,94434.53
2022-11-16T09:36:41.046Z,94388.66
2022-11-16T09:41:52.473Z,94418.75
2022-11-16T09:44:25.302Z,94413.25
2022-11-16T09:46:58.936Z,94408.59
2022-11-16T09:49:31.167Z,94411.56
2022-11-16T09:52:02.650Z,94405.53
2022-11-16T09:54:36.387Z,94401.75
2022-11-16T09:57:12.190Z,94389.41
2022-11-16T09:59:53.960Z,94394.22
2022-11-16T10:02:38.890Z,94301.63
2022-11-16T10:05:18.588Z,94380.50
2022-11-16T10:07:50.912Z,94377.19
2022-11-16T10:10:40.166Z,94372.53
2022-11-16T10:13:16.643Z,94362.47
2022-11-16T10:16:02.348Z,94356.91
2022-11-16T10:18:53.955Z,94353.59
2022-11-16T10:21:42.299Z,94345.94
2022-11-16T10:24:26.206Z,94348.97
2022-11-16T10:27:22.298Z,94344.44
2022-11-16T10:30:01.300Z,94329.75
2022-11-16T10:32:33.161Z,94336.97
2022-11-16T10:35:03.273Z,94330.78
2022-11-16T10:37:36.736Z,94326.22
2022-11-16T10:40:24.679Z,94326.94
2022-11-16T10:43:12.646Z,94314.16
2022-11-16T10:45:43.559Z,94311.88
2022-11-16T10:48:31.512Z,94321.16
2022-11-16T10:50:58.675Z,94320.75
2022-11-16T10:53:28.387Z,94315.63
2022-11-16T10:56:13.766Z,94309.13
2022-11-16T10:58:52.943Z,94310.44
2022-11-16T11:01:50.907Z,94303.91
2022-11-16T11:04:31.668Z,94295.59
2022-11-16T11:07:19.582Z,94294.19
2022-11-16T11:09:52.975Z,94278.78
2022-11-16T11:12:38.070Z,94282.00
2022-11-16T11:15:11.187Z,94282.25
2022-11-16T11:17:39.447Z,94275.94
2022-11-16T11:20:08.306Z,94267.25
2022-11-16T11:22:58.606Z,94259.50
2022-11-16T11:25:32.397Z,94258.50
2022-11-16T11:28:05.485Z,94250.53
2022-11-16T11:30:33.826Z,94248.47
2022-11-16T11:33:01.711Z,94238.09
2022-11-16T11:35:31.846Z,94225.38
2022-11-16T11:38:07.755Z,94235.06
2022-11-16T11:43:25.176Z,94229.19
2022-11-16T11:46:04.382Z,94219.44
2022-11-16T11:49:06.503Z,94228.56
2022-11-16T11:51:40.306Z,94213.91
2022-11-16T11:54:14.703Z,94223.78
2022-11-16T11:56:41.727Z,94213.91
2022-11-16T11:59:18.990Z,94199.78
2022-11-16T12:01:58.943Z,94200.84
2022-11-16T12:05:03.651Z,94189.91
2022-11-16T12:07:53.769Z,94202.22
2022-11-16T12:10:26.919Z,94195.78
2022-11-16T12:13:27.930Z,94192.88
2022-11-16T12:16:39.615Z,94195.81
2022-11-16T12:19:32.494Z,94189.41
2022-11-16T12:22:21.724Z,94183.00
2022-11-16T12:25:07.264Z,94169.66
2022-11-16T12:28:09.113Z,94169.38
2022-11-16T12:31:02.081Z,94165.38
2022-11-16T12:33:37.971Z,94168.06
2022-11-16T12:36:24.757Z,94144.53
2022-11-16T12:39:22.569Z,94150.16
2022-11-16T12:41:49.330Z,94148.03
2022-11-16T12:44:27.442Z,94109.88
2022-11-16T12:47:07.740Z,94153.88
2022-11-16T12:49:49.700Z,94148.25
2022-11-16T12:52:44.135Z,94142.91
2022-11-16T12:55:36.897Z,94141.59
2022-11-16T12:58:45.038Z,94142.38
2022-11-16T13:01:20.632Z,94132.47
2022-11-16T13:03:53.325Z,94123.41
2022-11-16T13:06:26.577Z,94112.22
2022-11-16T13:09:14.434Z,94124.69
2022-11-16T13:11:49.654Z,94118.31
2022-11-16T13:14:24.874Z,94120.22
2022-11-16T13:16:53.773Z,94132.22
2022-11-16T13:19:21.226Z,94115.34
2022-11-16T13:21:56.263Z,94125.44
2022-11-16T13:24:29.769Z,94120.63
2022-11-16T13:27:06.586Z,94110.75
2022-11-16T13:30:01.526Z,94107.00
2022-11-16T13:32:32.707Z,94112.88
2022-11-16T13:35:03.414Z,94116.34
2022-11-16T13:37:36.682Z,94104.59
2022-11-16T13:40:04.584Z,94099.78
2022-11-16T13:42:34.758Z,94110.19
2022-11-16T13:45:19.221Z,94115.81
2022-11-16T13:47:54.659Z,94118.47
2022-11-16T13:50:37.985Z,94117.94
2022-11-16T13:56:02.005Z,94110.22
2022-11-16T13:58:31.569Z,94117.94
2022-11-16T14:01:07.685Z,94119.81
2022-11-16T14:03:43.174Z,94113.69
2022-11-16T14:06:13.167Z,94111.84
2022-11-16T14:08:40.102Z,94107.59
2022-11-16T14:11:28.782Z,94106.75
2022-11-16T14:13:55.929Z,94103.25
2022-11-16T14:16:22.794Z,94103.25
2022-11-16T14:18:52.185Z,94109.66
2022-11-16T14:21:37.903Z,94099.78
2022-11-16T14:24:11.870Z,94105.66
2022-11-16T14:26:51.517Z,94101.66
2022-11-16T14:29:46.855Z,94088.66
2022-11-16T14:32:41.294Z,94091.28
2022-11-16T14:35:22.783Z,94083.81
2022-11-16T14:37:58.510Z,94079.81
2022-11-16T14:40:25.863Z,94094.75
2022-11-16T14:43:16.352Z,94097.72
2022-11-16T14:45:49.093Z,94092.09
2022-11-16T14:48:18.786Z,94075.09
2022-11-16T14:50:59.975Z,94086.31
2022-11-16T14:53:29.029Z,94084.97
2022-11-16T14:56:07.387Z,94100.72
2022-11-16T14:58:35.927Z,94096.97
2022-11-16T15:01:06.151Z,94083.63
2022-11-16T15:03:39.055Z,94081.00
2022-11-16T15:06:07.935Z,94072.22
2022-11-16T15:08:45.366Z,94071.41
2022-11-16T15:11:24.737Z,94086.09
2022-11-16T15:13:51.689Z,94084.78
2022-11-16T15:16:20.378Z,94064.75
2022-11-16T15:19:01.972Z,94076.78
2022-11-16T15:21:29.317Z,94077.59
2022-11-16T15:26:43.623Z,94069.28
2022-11-16T15:29:22.090Z,94021.81
2022-11-16T15:31:49.242Z,94063.69
2022-11-16T15:34:18.626Z,94069.03
2022-11-16T15:36:46.332Z,94079.16
2022-11-16T15:39:19.693Z,94065.31
2022-11-16T15:41:47.246Z,94015.16
2022-11-16T15:44:17.840Z,94013.81
2022-11-16T15:46:51.735Z,94069.56
2022-11-16T15:49:30.266Z,94080.78
2022-11-16T15:51:59.176Z,94073.34
2022-11-16T15:54:30.435Z,94071.69
2022-11-16T15:57:08.267Z,94052.78
2022-11-16T15:59:37.036Z,94074.91
2022-11-16T16:02:04.447Z,94061.03
2022-11-16T16:04:31.467Z,94076.25
2022-11-16T16:07:00.794Z,94066.94
2022-11-16T16:09:34.291Z,94082.38
2022-11-16T16:12:16.711Z,94085.56
2022-11-16T16:14:44.805Z,94071.97
2022-11-16T16:17:21.313Z,94076.72
2022-11-16T16:19:55.894Z,94080.97
2022-11-16T16:22:35.328Z,94083.13
2022-11-16T16:25:04.175Z,94070.31
2022-11-16T16:27:37.335Z,94076.44
2022-11-16T16:30:06.048Z,94090.03
2022-11-16T16:32:35.642Z,94082.84
2022-11-16T16:35:08.989Z,94079.38
2022-11-16T16:37:36.788Z,94083.34
2022-11-16T16:40:04.887Z,94070.28
2022-11-16T16:42:32.068Z,94045.19
2022-11-16T16:45:00.288Z,94074.53
2022-11-16T16:47:27.458Z,94079.31
2022-11-16T16:49:54.634Z,94061.16
2022-11-16T16:52:21.741Z,94072.63
2022-11-16T16:54:48.592Z,94065.44
2022-11-16T16:57:17.595Z,94080.13
2022-11-16T16:59:48.416Z,94070.28
2022-11-16T17:02:16.958Z,94078.78
2022-11-16T17:04:46.716Z,94053.44
2022-11-16T17:07:15.461Z,94060.66
2022-11-16T17:09:42.869Z,94061.69
2022-11-16T17:12:11.090Z,94047.28
2022-11-16T17:14:37.910Z,94067.84
2022-11-16T17:17:05.378Z,94062.25
2022-11-16T17:19:32.573Z,94071.06
2022-11-16T17:22:00.035Z,94064.13
2022-11-16T17:24:26.981Z,94049.19
2022-11-16T17:26:53.886Z,94063.59
2022-11-16T17:29:20.807Z,94062.78
2022-11-16T17:31:47.690Z,94060.66
2022-11-16T17:34:14.894Z,94051.06
2022-11-16T17:36:42.760Z,94060.38
2022-11-16T17:39:09.907Z,94057.44
2022-11-16T17:41:37.377Z,94056.38
2022-11-16T17:44:04.934Z,94050.25
2022-11-16T17:46:31.990Z,94050.00
2022-11-16T17:48:59.202Z,94034.25
2022-11-16T17:51:27.911Z,94054.78
2022-11-16T17:53:54.899Z,94036.13
2022-11-16T17:56:26.116Z,94039.06
2022-11-16T17:58:55.133Z,94035.88
2022-11-16T18:01:22.980Z,94039.88
2022-11-16T18:03:50.142Z,94039.84
2022-11-16T18:06:19.443Z,94036.09
2022-11-16T18:08:46.654Z,94034.78
2022-11-16T18:11:18.810Z,94039.84
2022-11-16T18:13:47.343Z,94026.50
2022-11-16T18:16:19.694Z,94000.28
2022-11-16T18:18:48.346Z,94029.13
2022-11-16T18:21:20.740Z,94024.06
2022-11-16T18:23:48.527Z,93981.38
2022-11-16T18:26:18.867Z,93912.81
2022-11-16T18:28:46.619Z,94024.06
2022-11-16T18:31:17.068Z,94008.06
2022-11-16T18:33:44.153Z,94001.41
2022-11-16T18:36:12.478Z,94002.22
2022-11-16T18:38:39.554Z,94004.06
2022-11-16T18:41:12.242Z,94018.72
2022-11-16T18:43:40.865Z,93991.78
2022-11-16T18:46:08.126Z,94021.44
2022-11-16T18:48:35.179Z,94018.22
2022-11-16T18:51:04.632Z,94013.94
2022-11-16T18:53:32.810Z,94025.91
2022-11-16T18:56:00.059Z,94034.78
2022-11-16T19:01:17.778Z,94037.94
2022-11-16T19:03:44.770Z,93997.91
2022-11-16T19:06:11.841Z,94010.72
2022-11-16T19:08:40.470Z,94010.72
2022-11-16T19:11:11.766Z,94003.53
2022-11-16T19:13:41.035Z,94003.56
2022-11-16T19:16:09.445Z,94027.53
2022-11-16T19:18:37.668Z,94013.94
2022-11-16T19:21:05.756Z,94023.03
2022-11-16T19:23:37.820Z,94027.84
2022-11-16T19:26:05.448Z,94016.88
2022-11-16T19:28:37.079Z,94006.47
2022-11-16T19:31:15.307Z,94029.66
2022-11-16T19:33:43.055Z,94013.66
2022-11-16T19:36:15.842Z,94019.53
2022-11-16T19:38:44.470Z,94022.75
2022-11-16T19:41:12.608Z,94016.59
2022-11-16T19:43:39.654Z,94010.47
2022-11-16T19:46:11.999Z,94015.81
2022-11-16T19:48:39.276Z,94027.03
2022-11-16T19:51:15.032Z,94030.50
2022-11-16T19:53:42.572Z,94038.19
2022-11-16T19:56:14.868Z,94018.47
2022-11-16T19:58:42.759Z,94018.47
2022-11-16T20:01:15.860Z,94014.22
2022-11-16T20:03:43.661Z,93999.78
2022-11-16T20:06:15.260Z,94012.88
2022-11-16T20:08:46.341Z,93997.69
2022-11-16T20:11:15.511Z,94003.31
2022-11-16T20:13:42.833Z,94010.50
2022-11-16T20:16:12.387Z,94004.63
2022-11-16T20:18:40.122Z,93999.56
2022-11-16T20:21:08.896Z,94000.34
2022-11-16T20:23:36.337Z,93986.75
2022-11-16T20:26:09.523Z,93986.47
2022-11-16T20:28:41.803Z,93993.97
2022-11-16T20:31:15.271Z,93979.03
2022-11-16T20:33:43.124Z,93934.25
2022-11-16T20:36:11.780Z,93963.81
2022-11-16T20:38:39.569Z,93962.00
2022-11-16T20:41:14.170Z,93966.53
2022-11-16T20:43:42.242Z,93943.03
2022-11-16T20:46:11.121Z,93944.91
2022-11-16T20:48:39.815Z,93971.56
2022-11-16T20:51:08.037Z,93953.72
2022-11-16T20:53:35.621Z,93940.66
2022-11-16T20:56:04.244Z,93972.94
2022-11-16T20:58:32.298Z,93963.06
2022-11-16T21:01:01.016Z,93953.97
2022-11-16T21:03:28.679Z,93965.97
2022-11-16T21:05:55.887Z,93928.66
2022-11-16T21:08:24.946Z,93954.00
2022-11-16T21:10:52.162Z,93939.59
2022-11-16T21:13:39.092Z,93940.66
2022-11-16T21:16:11.507Z,93951.31
2022-11-16T21:18:41.714Z,93923.88
2022-11-16T21:21:12.448Z,93923.88
2022-11-16T21:23:43.286Z,93941.72
2022-11-16T21:26:15.290Z,93937.50
2022-11-16T21:28:45.332Z,93927.63
2022-11-16T21:31:18.094Z,93934.31
2022-11-16T21:33:45.966Z,93910.63
2022-11-16T21:36:16.019Z,93928.19
2022-11-16T21:38:43.508Z,93939.88
2022-11-16T21:41:15.617Z,93911.13
2022-11-16T21:43:42.602Z,93914.88
2022-11-16T21:46:18.015Z,93939.91
2022-11-16T21:48:46.949Z,93910.88
2022-11-16T21:51:18.859Z,93903.13
2022-11-16T21:53:46.449Z,93923.13
2022-11-16T21:56:18.099Z,93923.16
2022-11-16T21:58:46.125Z,93910.34
2022-11-16T22:01:15.664Z,93908.22
2022-11-16T22:03:42.551Z,93893.84
2022-11-16T22:06:31.994Z,93897.56
2022-11-16T22:08:59.239Z,93886.91
2022-11-16T22:11:26.103Z,93899.16
2022-11-16T22:13:53.064Z,93907.44
2022-11-16T22:16:23.367Z,93884.78
2022-11-16T22:18:50.839Z,93893.56
2022-11-16T22:21:18.032Z,93900.72
2022-11-16T22:23:45.069Z,93887.69
2022-11-16T22:26:13.554Z,93902.91
2022-11-16T22:28:40.758Z,93900.50
2022-11-16T22:31:15.181Z,93886.09
2022-11-16T22:33:42.401Z,93887.69
2022-11-16T22:36:10.114Z,93871.75
2022-11-16T22:38:37.085Z,93875.22
2022-11-16T22:41:04.632Z,93831.81
2022-11-16T22:43:32.605Z,93865.63
2022-11-16T22:46:01.995Z,93837.66
2022-11-16T22:48:33.480Z,93834.72
2022-11-16T22:51:21.531Z,93853.09
2022-11-16T22:53:52.914Z,93842.19
2022-11-16T22:56:20.252Z,93848.59
2022-11-16T22:58:47.180Z,93720.72
2022-11-16T23:01:14.264Z,93858.41
2022-11-16T23:03:41.324Z,93865.63
2022-11-16T23:06:08.979Z,93859.47
2022-11-16T23:08:36.734Z,93852.56
2022-11-16T23:11:36.003Z,93853.09
2022-11-16T23:14:23.420Z,93849.63
2022-11-16T23:16:50.867Z,93848.03
2022-11-16T23:19:38.154Z,93821.66
2022-11-16T23:22:23.739Z,93852.31
2022-11-16T23:25:09.464Z,93863.75
2022-11-16T23:27:44.947Z,93844.81
2022-11-16T23:30:13.455Z,93839.00
2022-11-16T23:32:41.785Z,93801.44
2022-11-16T23:35:09.808Z,93852.81
2022-11-16T23:37:53.998Z,93842.16
2022-11-16T23:40:22.955Z,93834.44
2022-11-16T23:43:08.568Z,93827.53
2022-11-16T23:45:35.930Z,93785.19
2022-11-16T23:48:02.802Z,93825.13
2022-11-16T23:50:29.929Z,93800.88
2022-11-16T23:52:56.918Z,93832.56
2022-11-16T23:55:24.271Z,93817.41
2022-11-16T23:57:51.407Z,93817.16
